Muqui, Brazil
Current Conditions -  °F | °C
As of 7:00 PM on Monday 20 Oct 2014 (Local Time) from SBCP Reporting Station
Overcast Overcast  
Wind Chill: 77°   Ceiling: 9000
Heat Index: 78°   Visibility: 6mi
Dew Point: 72°   Wind: 9mph
Humidity: 83%   Direction: 210°SSW
Pressure: 29.97"   Gusts: NA
Location:  20.95°S, 41.35°W
Report Text: SBCP 202200Z 21008KT 9999 SCT020 OVC090 25/22 Q1015
Loading
Personal Weather Stations






























Interactive Weather Map
Tropical Storm Tracking
New forecast layout! Learn more

10-Day Weather Forecast

Advertisements
Track Severe Weather on mobile